Pfugerville's Hourly Summary for Friday, March 17, 2017
Hour Temp
(f)
RH
(%)
Solar Rad.
(MJ/m2)
Rainfall
(in)
Wind
(mph)
3/17/2017 12:00 AM 66 99 0 0 11.78
3/17/2017 1:00 AM 65 100 0 0 11.14
3/17/2017 2:00 AM 65 100 0 0 13.26
3/17/2017 3:00 AM 65 100 0 0 14.05
3/17/2017 4:00 AM 64 100 0 0 13.69
3/17/2017 5:00 AM 64 100 0 0 11.76
3/17/2017 6:00 AM 64 100 0 0 12.01
3/17/2017 7:00 AM 65 100 0 0 12.9
3/17/2017 8:00 AM 65 100 0 0 11.18
3/17/2017 9:00 AM 65 100 0.05 0 11.58
3/17/2017 10:00 AM 65 100 0.18 0 12.03
3/17/2017 11:00 AM 66 100 0.42 0 13.24
3/17/2017 12:00 PM 69 100 0.86 0 16.03
3/17/2017 1:00 PM 71 99 0.72 0 17.77
3/17/2017 2:00 PM 72 99 0.96 0 15.1
3/17/2017 3:00 PM 74 88 1.33 0 14.61
3/17/2017 4:00 PM 77 70 1.99 0 14.56
3/17/2017 5:00 PM 78 62 1.34 0 13.99
3/17/2017 6:00 PM 79 60 0.56 0 11.84
3/17/2017 7:00 PM 78 60 0.44 0 10.69
3/17/2017 8:00 PM 75 65 0.05 0 9.18
3/17/2017 9:00 PM 71 76 0 0 7.06
3/17/2017 10:00 PM 69 87 0 0 7.19
3/17/2017 11:00 PM 68 99 0 0 8.82
Data Summary 69 90 8.90 0.00 12.31